ADR8183 LYTV-LJLJ
Flight info
| Callsign | ADR8183 |
|---|---|
| Flight time | 0h 57m |
| Altitude | 20000 |
| Route | NIK L604 BOSNA L608 KOMAR L172 DEVUL/N0447F360 DCT GORPA GORPA1L |
| Aircraft | A320/M-SDE3FGHIRWY/LB1 |
Departure
| Time | 2026-04-26 10:56 |
|---|---|
| Airport | Tivat Airport (LYTV) |
Arrival
| Time | 2026-04-26 11:53 |
|---|---|
| Airport | Ljubljana Jože Pučnik Airport (LJLJ) |
| Time | Latitude | Longitude | Altitude | Speed | Heading |
|---|---|---|---|---|---|
| 2026-04-26 10:12 | 42.41251 | 18.71656 | -3 ft | 0 kts | 185° |
| 2026-04-26 10:50 | 42.41244 | 18.71655 | 25 ft | 2 kts | 185° |
| 2026-04-26 10:50 | 42.41231 | 18.71653 | 25 ft | 2 kts | 185° |
| 2026-04-26 10:51 | 42.41213 | 18.71651 | 26 ft | 3 kts | 185° |
| 2026-04-26 10:51 | 42.41150 | 18.71708 | 26 ft | 8 kts | 137° |
| 2026-04-26 10:51 | 42.41100 | 18.71766 | 26 ft | 11 kts | 139° |
| 2026-04-26 10:52 | 42.41048 | 18.71829 | 26 ft | 8 kts | 139° |
| 2026-04-26 10:52 | 42.41006 | 18.71857 | 26 ft | 5 kts | 190° |
| 2026-04-26 10:52 | 42.40975 | 18.71820 | 28 ft | 7 kts | 227° |
| 2026-04-26 10:52 | 42.40935 | 18.71786 | 27 ft | 8 kts | 175° |
| 2026-04-26 10:53 | 42.40883 | 18.71840 | 26 ft | 15 kts | 137° |
| 2026-04-26 10:53 | 42.40755 | 18.71988 | 25 ft | 32 kts | 140° |
| 2026-04-26 10:53 | 42.40570 | 18.72204 | 25 ft | 36 kts | 139° |
| 2026-04-26 10:54 | 42.40190 | 18.72659 | 27 ft | 37 kts | 140° |
| 2026-04-26 10:54 | 42.39988 | 18.72891 | 25 ft | 39 kts | 139° |
| 2026-04-26 10:54 | 42.39782 | 18.73132 | 25 ft | 39 kts | 139° |
| 2026-04-26 10:54 | 42.39655 | 18.73269 | 25 ft | 17 kts | 149° |
| 2026-04-26 10:55 | 42.39655 | 18.73295 | 27 ft | 5 kts | 316° |
| 2026-04-26 10:55 | 42.39688 | 18.73248 | 25 ft | 8 kts | 320° |
| 2026-04-26 10:55 | 42.39777 | 18.73146 | 25 ft | 39 kts | 319° |
| 2026-04-26 10:55 | 42.40168 | 18.72685 | 27 ft | 105 kts | 319° |
| 2026-04-26 10:56 | 42.40850 | 18.71875 | 28 ft | 154 kts | 319° |
| 2026-04-26 10:56 | 42.41698 | 18.70883 | 496 ft | 164 kts | 314° |
| 2026-04-26 10:56 | 42.42311 | 18.69642 | 1163 ft | 161 kts | 281° |
| 2026-04-26 10:56 | 42.42161 | 18.68164 | 1781 ft | 160 kts | 237° |
| 2026-04-26 10:57 | 42.41329 | 18.67155 | 2321 ft | 167 kts | 205° |
| 2026-04-26 10:57 | 42.40204 | 18.66620 | 2766 ft | 176 kts | 203° |
| 2026-04-26 10:57 | 42.39192 | 18.65691 | 3344 ft | 180 kts | 225° |
| 2026-04-26 10:57 | 42.38226 | 18.64473 | 3769 ft | 199 kts | 224° |
| 2026-04-26 10:58 | 42.37145 | 18.63153 | 4090 ft | 222 kts | 223° |
| 2026-04-26 10:58 | 42.35914 | 18.61733 | 4553 ft | 239 kts | 220° |
| 2026-04-26 10:58 | 42.34602 | 18.60302 | 5293 ft | 245 kts | 219° |
| 2026-04-26 10:58 | 42.33147 | 18.59091 | 6059 ft | 250 kts | 201° |
| 2026-04-26 10:59 | 42.31426 | 18.58587 | 6721 ft | 260 kts | 180° |
| 2026-04-26 10:59 | 42.29604 | 18.58819 | 7435 ft | 265 kts | 172° |
| 2026-04-26 10:59 | 42.27762 | 18.59139 | 8243 ft | 269 kts | 172° |
| 2026-04-26 10:59 | 42.25892 | 18.59453 | 9061 ft | 272 kts | 172° |
| 2026-04-26 11:00 | 42.24006 | 18.59773 | 9883 ft | 275 kts | 170° |
| 2026-04-26 11:00 | 42.22162 | 18.60493 | 10604 ft | 278 kts | 155° |
| 2026-04-26 11:00 | 42.20411 | 18.61631 | 11326 ft | 281 kts | 154° |
| 2026-04-26 11:00 | 42.18647 | 18.62797 | 11960 ft | 289 kts | 151° |
| 2026-04-26 11:01 | 42.17080 | 18.64597 | 12299 ft | 305 kts | 124° |
| 2026-04-26 11:01 | 42.16215 | 18.67212 | 12883 ft | 310 kts | 99° |
| 2026-04-26 11:01 | 42.16274 | 18.70092 | 13525 ft | 312 kts | 72° |
| 2026-04-26 11:01 | 42.17270 | 18.72666 | 14134 ft | 312 kts | 46° |
| 2026-04-26 11:02 | 42.18992 | 18.74396 | 14718 ft | 312 kts | 23° |
| 2026-04-26 11:02 | 42.20974 | 18.75630 | 15317 ft | 315 kts | 22° |
| 2026-04-26 11:02 | 42.22985 | 18.76859 | 15935 ft | 319 kts | 21° |
| 2026-04-26 11:02 | 42.25013 | 18.78094 | 16546 ft | 322 kts | 21° |
| 2026-04-26 11:03 | 42.27069 | 18.79346 | 17158 ft | 325 kts | 20° |
| 2026-04-26 11:03 | 42.29221 | 18.80298 | 17755 ft | 326 kts | 9° |
| 2026-04-26 11:03 | 42.31455 | 18.80855 | 18373 ft | 329 kts | 7° |
| 2026-04-26 11:03 | 42.33718 | 18.81411 | 18933 ft | 331 kts | 7° |
| 2026-04-26 11:04 | 42.35991 | 18.81975 | 19473 ft | 334 kts | 7° |
| 2026-04-26 11:04 | 42.38261 | 18.82543 | 20032 ft | 337 kts | 7° |
| 2026-04-26 11:04 | 42.40581 | 18.83123 | 20565 ft | 340 kts | 6° |
| 2026-04-26 11:04 | 42.42908 | 18.83702 | 21082 ft | 342 kts | 6° |
| 2026-04-26 11:05 | 42.45258 | 18.84287 | 21618 ft | 344 kts | 6° |
| 2026-04-26 11:05 | 42.47648 | 18.84882 | 22149 ft | 346 kts | 5° |
| 2026-04-26 11:05 | 42.49997 | 18.85468 | 22649 ft | 349 kts | 5° |
| 2026-04-26 11:05 | 42.52397 | 18.86070 | 23168 ft | 351 kts | 5° |
| 2026-04-26 11:06 | 42.54804 | 18.86676 | 23674 ft | 354 kts | 5° |
| 2026-04-26 11:06 | 42.57234 | 18.87289 | 24102 ft | 356 kts | 6° |
| 2026-04-26 11:06 | 42.59681 | 18.87903 | 24530 ft | 358 kts | 5° |
| 2026-04-26 11:06 | 42.62134 | 18.88517 | 24946 ft | 360 kts | 5° |
| 2026-04-26 11:07 | 42.64610 | 18.89137 | 25367 ft | 363 kts | 6° |
| 2026-04-26 11:07 | 42.67093 | 18.89760 | 25786 ft | 365 kts | 6° |
| 2026-04-26 11:07 | 42.69597 | 18.90391 | 26199 ft | 367 kts | 6° |
| 2026-04-26 11:07 | 42.72117 | 18.91028 | 26609 ft | 369 kts | 6° |
| 2026-04-26 11:08 | 42.74652 | 18.91393 | 26989 ft | 366 kts | 355° |
| 2026-04-26 11:08 | 42.77172 | 18.91042 | 27372 ft | 363 kts | 343° |
| 2026-04-26 11:08 | 42.79575 | 18.90009 | 27578 ft | 366 kts | 333° |
| 2026-04-26 11:08 | 42.81804 | 18.88293 | 27721 ft | 371 kts | 321° |
| 2026-04-26 11:09 | 42.83909 | 18.86180 | 27860 ft | 380 kts | 321° |
| 2026-04-26 11:09 | 42.86056 | 18.84022 | 27995 ft | 389 kts | 321° |
| 2026-04-26 11:09 | 42.88263 | 18.81807 | 28124 ft | 398 kts | 322° |
| 2026-04-26 11:09 | 42.90520 | 18.79547 | 28280 ft | 406 kts | 322° |
| 2026-04-26 11:10 | 42.92814 | 18.77252 | 28398 ft | 414 kts | 322° |
| 2026-04-26 11:10 | 42.95159 | 18.74903 | 28519 ft | 422 kts | 322° |
| 2026-04-26 11:10 | 42.97535 | 18.72518 | 28732 ft | 427 kts | 322° |
| 2026-04-26 11:10 | 42.99949 | 18.70094 | 29030 ft | 430 kts | 322° |
| 2026-04-26 11:11 | 43.02367 | 18.67663 | 29396 ft | 432 kts | 322° |
| 2026-04-26 11:11 | 43.04783 | 18.65234 | 29906 ft | 431 kts | 322° |
| 2026-04-26 11:11 | 43.07207 | 18.62819 | 30370 ft | 430 kts | 322° |
| 2026-04-26 11:11 | 43.09623 | 18.60423 | 30781 ft | 429 kts | 323° |
| 2026-04-26 11:12 | 43.12042 | 18.58026 | 31197 ft | 429 kts | 323° |
| 2026-04-26 11:12 | 43.14526 | 18.55772 | 31611 ft | 429 kts | 329° |
| 2026-04-26 11:12 | 43.17220 | 18.54006 | 32035 ft | 429 kts | 334° |
| 2026-04-26 11:12 | 43.19949 | 18.52346 | 32473 ft | 428 kts | 334° |
| 2026-04-26 11:13 | 43.22667 | 18.50685 | 32910 ft | 427 kts | 334° |
| 2026-04-26 11:13 | 43.25381 | 18.49018 | 33359 ft | 427 kts | 334° |
| 2026-04-26 11:13 | 43.28081 | 18.47344 | 33809 ft | 426 kts | 333° |
| 2026-04-26 11:13 | 43.30772 | 18.45665 | 34241 ft | 424 kts | 333° |
| 2026-04-26 11:14 | 43.33460 | 18.43988 | 34597 ft | 424 kts | 333° |
| 2026-04-26 11:14 | 43.36140 | 18.42319 | 34966 ft | 423 kts | 333° |
| 2026-04-26 11:14 | 43.38820 | 18.40650 | 35304 ft | 422 kts | 333° |
| 2026-04-26 11:14 | 43.40591 | 18.39545 | 35538 ft | 422 kts | 333° |
| 2026-04-26 11:15 | 43.44163 | 18.37314 | 35977 ft | 421 kts | 333° |
| 2026-04-26 11:15 | 43.46838 | 18.35646 | 36094 ft | 423 kts | 333° |
| 2026-04-26 11:15 | 43.52248 | 18.32266 | 36119 ft | 429 kts | 333° |
| 2026-04-26 11:16 | 43.57689 | 18.28855 | 36110 ft | 429 kts | 333° |
| 2026-04-26 11:16 | 43.63127 | 18.25441 | 36119 ft | 430 kts | 333° |
| 2026-04-26 11:17 | 43.68534 | 18.22042 | 36111 ft | 430 kts | 333° |
| 2026-04-26 11:17 | 43.73981 | 18.18610 | 36117 ft | 430 kts | 333° |
| 2026-04-26 11:18 | 43.79423 | 18.15175 | 36122 ft | 430 kts | 333° |
| 2026-04-26 11:18 | 43.84867 | 18.11732 | 36125 ft | 430 kts | 333° |
| 2026-04-26 11:19 | 43.90285 | 18.08221 | 36128 ft | 430 kts | 332° |
| 2026-04-26 11:19 | 43.95643 | 18.04540 | 36149 ft | 430 kts | 332° |
| 2026-04-26 11:20 | 44.00120 | 18.01427 | 36149 ft | 429 kts | 332° |
| 2026-04-26 11:20 | 44.06340 | 17.97140 | 36142 ft | 430 kts | 332° |
| 2026-04-26 11:21 | 44.11705 | 17.93470 | 36147 ft | 430 kts | 332° |
| 2026-04-26 11:21 | 44.17068 | 17.89793 | 36154 ft | 430 kts | 332° |
| 2026-04-26 11:22 | 44.22427 | 17.86101 | 36161 ft | 430 kts | 332° |
| 2026-04-26 11:22 | 44.27784 | 17.82408 | 36154 ft | 429 kts | 332° |
| 2026-04-26 11:23 | 44.33131 | 17.78710 | 36153 ft | 429 kts | 332° |
| 2026-04-26 11:23 | 44.38066 | 17.74123 | 36155 ft | 426 kts | 316° |
| 2026-04-26 11:24 | 44.42021 | 17.67968 | 36156 ft | 426 kts | 310° |
| 2026-04-26 11:24 | 44.45900 | 17.61704 | 36153 ft | 426 kts | 310° |
| 2026-04-26 11:25 | 44.49780 | 17.55439 | 36151 ft | 426 kts | 310° |
| 2026-04-26 11:25 | 44.53626 | 17.49201 | 36144 ft | 426 kts | 310° |
| 2026-04-26 11:26 | 44.57516 | 17.42861 | 36141 ft | 426 kts | 310° |
| 2026-04-26 11:26 | 44.61351 | 17.36588 | 36145 ft | 426 kts | 310° |
| 2026-04-26 11:27 | 44.65217 | 17.30276 | 36150 ft | 426 kts | 310° |
| 2026-04-26 11:27 | 44.69111 | 17.23993 | 36141 ft | 426 kts | 311° |
| 2026-04-26 11:28 | 44.73010 | 17.17701 | 36141 ft | 427 kts | 310° |
| 2026-04-26 11:28 | 44.76899 | 17.11392 | 36143 ft | 427 kts | 310° |
| 2026-04-26 11:29 | 44.80784 | 17.05069 | 36142 ft | 427 kts | 310° |
| 2026-04-26 11:29 | 44.84662 | 16.98726 | 36142 ft | 427 kts | 310° |
| 2026-04-26 11:30 | 44.87878 | 16.93450 | 36141 ft | 427 kts | 310° |
| 2026-04-26 11:30 | 44.92393 | 16.86027 | 36149 ft | 427 kts | 310° |
| 2026-04-26 11:31 | 44.95593 | 16.80719 | 36154 ft | 427 kts | 308° |
| 2026-04-26 11:31 | 44.98955 | 16.73822 | 36151 ft | 426 kts | 304° |
| 2026-04-26 11:32 | 45.02261 | 16.66867 | 36145 ft | 426 kts | 304° |
| 2026-04-26 11:32 | 45.05566 | 16.59891 | 36150 ft | 426 kts | 304° |
| 2026-04-26 11:33 | 45.08863 | 16.52922 | 36147 ft | 426 kts | 304° |
| 2026-04-26 11:33 | 45.12161 | 16.45950 | 36150 ft | 426 kts | 304° |
| 2026-04-26 11:34 | 45.13926 | 16.42588 | 35797 ft | 424 kts | 310° |
| 2026-04-26 11:34 | 45.15837 | 16.39409 | 35162 ft | 425 kts | 310° |
| 2026-04-26 11:34 | 45.17763 | 16.36212 | 34522 ft | 427 kts | 310° |
| 2026-04-26 11:34 | 45.19674 | 16.33048 | 33841 ft | 428 kts | 310° |
| 2026-04-26 11:35 | 45.21638 | 16.29796 | 33039 ft | 431 kts | 310° |
| 2026-04-26 11:35 | 45.23591 | 16.26550 | 32217 ft | 434 kts | 310° |
| 2026-04-26 11:35 | 45.25552 | 16.23273 | 31398 ft | 437 kts | 310° |
| 2026-04-26 11:35 | 45.27514 | 16.19975 | 30650 ft | 438 kts | 310° |
| 2026-04-26 11:36 | 45.29451 | 16.16717 | 30042 ft | 436 kts | 310° |
| 2026-04-26 11:36 | 45.31394 | 16.13447 | 29388 ft | 432 kts | 310° |
| 2026-04-26 11:36 | 45.33328 | 16.10196 | 28771 ft | 428 kts | 311° |
| 2026-04-26 11:36 | 45.35243 | 16.06982 | 28210 ft | 423 kts | 311° |
| 2026-04-26 11:37 | 45.37130 | 16.03813 | 27621 ft | 419 kts | 311° |
| 2026-04-26 11:37 | 45.39008 | 16.00656 | 26995 ft | 416 kts | 311° |
| 2026-04-26 11:37 | 45.40866 | 15.97522 | 26383 ft | 414 kts | 311° |
| 2026-04-26 11:37 | 45.42715 | 15.94395 | 25821 ft | 411 kts | 311° |
| 2026-04-26 11:38 | 45.44545 | 15.91294 | 25243 ft | 408 kts | 311° |
| 2026-04-26 11:38 | 45.46366 | 15.88208 | 24728 ft | 404 kts | 311° |
| 2026-04-26 11:38 | 45.48159 | 15.85164 | 24252 ft | 400 kts | 311° |
| 2026-04-26 11:38 | 45.49943 | 15.82138 | 23750 ft | 397 kts | 311° |
| 2026-04-26 11:39 | 45.51716 | 15.79137 | 23173 ft | 394 kts | 311° |
| 2026-04-26 11:39 | 45.53467 | 15.76165 | 22609 ft | 391 kts | 311° |
| 2026-04-26 11:39 | 45.55210 | 15.73202 | 22057 ft | 388 kts | 311° |
| 2026-04-26 11:39 | 45.56939 | 15.70262 | 21563 ft | 385 kts | 311° |
| 2026-04-26 11:40 | 45.58645 | 15.67352 | 21033 ft | 382 kts | 311° |
| 2026-04-26 11:40 | 45.60348 | 15.64448 | 20491 ft | 380 kts | 311° |
| 2026-04-26 11:40 | 45.62040 | 15.61558 | 19987 ft | 377 kts | 311° |
| 2026-04-26 11:40 | 45.63710 | 15.58699 | 19529 ft | 374 kts | 311° |
| 2026-04-26 11:41 | 45.65371 | 15.55852 | 19013 ft | 371 kts | 311° |
| 2026-04-26 11:42 | 45.76574 | 15.36590 | 15349 ft | 350 kts | 310° |
| 2026-04-26 11:43 | 45.78104 | 15.33889 | 14833 ft | 348 kts | 309° |
| 2026-04-26 11:43 | 45.79558 | 15.31138 | 14381 ft | 344 kts | 307° |
| 2026-04-26 11:43 | 45.80956 | 15.28382 | 13912 ft | 341 kts | 307° |
| 2026-04-26 11:43 | 45.82330 | 15.25624 | 13389 ft | 338 kts | 306° |
| 2026-04-26 11:44 | 45.83686 | 15.22900 | 12880 ft | 335 kts | 306° |
| 2026-04-26 11:44 | 45.85040 | 15.20199 | 12355 ft | 332 kts | 306° |
| 2026-04-26 11:44 | 45.86389 | 15.17533 | 11847 ft | 328 kts | 307° |
| 2026-04-26 11:44 | 45.87725 | 15.14902 | 11352 ft | 326 kts | 307° |
| 2026-04-26 11:45 | 45.89040 | 15.12317 | 10867 ft | 324 kts | 306° |
| 2026-04-26 11:45 | 45.90363 | 15.09712 | 10718 ft | 312 kts | 306° |
| 2026-04-26 11:45 | 45.91597 | 15.07271 | 10590 ft | 301 kts | 306° |
| 2026-04-26 11:45 | 45.92810 | 15.04876 | 10468 ft | 291 kts | 306° |
| 2026-04-26 11:46 | 45.93993 | 15.02538 | 10338 ft | 281 kts | 306° |
| 2026-04-26 11:46 | 45.95100 | 15.00300 | 10104 ft | 276 kts | 305° |
| 2026-04-26 11:46 | 45.96213 | 14.98009 | 9794 ft | 275 kts | 305° |
| 2026-04-26 11:46 | 45.97284 | 14.95788 | 9486 ft | 274 kts | 305° |
| 2026-04-26 11:47 | 45.98365 | 14.93539 | 9171 ft | 273 kts | 305° |
| 2026-04-26 11:47 | 45.99441 | 14.91304 | 8858 ft | 272 kts | 305° |
| 2026-04-26 11:47 | 46.00516 | 14.89072 | 8503 ft | 269 kts | 305° |
| 2026-04-26 11:47 | 46.01500 | 14.86792 | 7913 ft | 269 kts | 298° |
| 2026-04-26 11:48 | 46.02440 | 14.84445 | 7336 ft | 272 kts | 304° |
| 2026-04-26 11:48 | 46.03555 | 14.82221 | 6942 ft | 274 kts | 308° |
| 2026-04-26 11:48 | 46.04711 | 14.80031 | 6583 ft | 276 kts | 309° |
| 2026-04-26 11:48 | 46.05870 | 14.77808 | 6209 ft | 278 kts | 308° |
| 2026-04-26 11:49 | 46.07025 | 14.75574 | 5842 ft | 278 kts | 307° |
| 2026-04-26 11:49 | 46.08185 | 14.73330 | 5464 ft | 281 kts | 308° |
| 2026-04-26 11:49 | 46.09356 | 14.71065 | 5091 ft | 282 kts | 307° |
| 2026-04-26 11:49 | 46.10531 | 14.68790 | 4727 ft | 283 kts | 307° |
| 2026-04-26 11:50 | 46.11692 | 14.66539 | 4344 ft | 276 kts | 307° |
| 2026-04-26 11:50 | 46.12814 | 14.64364 | 3980 ft | 264 kts | 307° |
| 2026-04-26 11:50 | 46.13884 | 14.62286 | 3645 ft | 253 kts | 307° |
| 2026-04-26 11:50 | 46.14911 | 14.60292 | 3342 ft | 243 kts | 306° |
| 2026-04-26 11:51 | 46.15885 | 14.58400 | 3014 ft | 225 kts | 306° |
| 2026-04-26 11:51 | 46.16782 | 14.56655 | 2734 ft | 209 kts | 307° |
| 2026-04-26 11:51 | 46.17600 | 14.55062 | 2488 ft | 184 kts | 307° |
| 2026-04-26 11:51 | 46.18311 | 14.53678 | 2248 ft | 162 kts | 307° |
| 2026-04-26 11:52 | 46.18959 | 14.52414 | 2046 ft | 154 kts | 306° |
| 2026-04-26 11:52 | 46.19379 | 14.51597 | 1918 ft | 154 kts | 307° |
| 2026-04-26 11:52 | 46.20223 | 14.49953 | 1668 ft | 153 kts | 307° |
| 2026-04-26 11:52 | 46.20855 | 14.48719 | 1455 ft | 151 kts | 307° |
| 2026-04-26 11:53 | 46.21481 | 14.47497 | 1252 ft | 150 kts | 307° |
| 2026-04-26 11:53 | 46.22048 | 14.46390 | 1241 ft | 117 kts | 307° |
| 2026-04-26 11:53 | 46.22394 | 14.45718 | 1255 ft | 48 kts | 307° |
| 2026-04-26 11:54 | 46.22643 | 14.45379 | 1266 ft | 17 kts | 336° |
| 2026-04-26 11:54 | 46.22731 | 14.45336 | 1263 ft | 9 kts | 347° |
| 2026-04-26 11:54 | 46.22782 | 14.45322 | 1263 ft | 8 kts | 349° |
| 2026-04-26 11:54 | 46.22835 | 14.45314 | 1261 ft | 7 kts | 3° |
| 2026-04-26 11:55 | 46.22882 | 14.45356 | 1261 ft | 9 kts | 36° |
| 2026-04-26 11:55 | 46.22932 | 14.45407 | 1263 ft | 5 kts | 36° |
| 2026-04-26 11:55 | 46.22937 | 14.45434 | 1263 ft | 3 kts | 101° |
| 2026-04-26 11:55 | 46.22936 | 14.45465 | 1262 ft | 4 kts | 60° |
| 2026-04-26 11:56 | 46.22955 | 14.45487 | 1266 ft | 1 kts | 36° |
| 2026-04-26 11:56 | 46.22964 | 14.45497 | 1262 ft | 3 kts | 37° |
| 2026-04-26 11:56 | 46.22977 | 14.45511 | 1263 ft | 1 kts | 37° |
| 2026-04-26 11:56 | 46.22979 | 14.45513 | 1263 ft | 0 kts | 37° |